createdAt,value
2022-08-01T00:02:11.567Z,7.05
2022-08-01T00:04:36.000Z,5.78
2022-08-01T00:06:59.700Z,7.60
2022-08-01T00:09:24.050Z,9.43
2022-08-01T00:11:48.342Z,6.30
2022-08-01T00:14:32.024Z,11.93
2022-08-01T00:16:58.095Z,7.85
2022-08-01T00:19:22.023Z,7.97
2022-08-01T00:21:52.347Z,9.30
2022-08-01T00:24:16.431Z,8.30
2022-08-01T00:26:41.693Z,11.02
2022-08-01T00:29:48.820Z,8.20
2022-08-01T00:31:51.682Z,11.15
2022-08-01T00:34:17.021Z,9.00
2022-08-01T00:36:41.002Z,9.50
2022-08-01T00:39:05.129Z,9.82
2022-08-01T00:41:28.952Z,13.02
2022-08-01T00:43:52.792Z,11.43
2022-08-01T00:46:16.870Z,9.10
2022-08-01T00:48:40.915Z,9.55
2022-08-01T00:51:07.474Z,8.43
2022-08-01T00:53:51.052Z,10.32
2022-08-01T00:56:16.661Z,11.63
2022-08-01T00:58:40.802Z,12.32
2022-08-01T01:01:05.319Z,8.85
2022-08-01T01:03:57.548Z,9.95
2022-08-01T01:06:44.789Z,8.82
2022-08-01T01:09:37.618Z,7.72
2022-08-01T01:12:16.404Z,11.85
2022-08-01T01:14:48.086Z,7.70
2022-08-01T01:17:12.547Z,9.60
2022-08-01T01:19:46.061Z,9.63
2022-08-01T01:22:29.947Z,10.00
2022-08-01T01:25:10.603Z,9.60
2022-08-01T01:27:48.055Z,10.02
2022-08-01T01:30:13.725Z,10.40
2022-08-01T01:32:42.116Z,10.18
2022-08-01T01:35:11.691Z,10.85
2022-08-01T01:37:36.899Z,9.32
2022-08-01T01:40:01.914Z,11.20
2022-08-01T01:42:27.921Z,10.98
2022-08-01T01:44:53.368Z,11.70
2022-08-01T01:47:20.098Z,10.90
2022-08-01T01:49:48.063Z,9.55
2022-08-01T01:52:13.572Z,11.43
2022-08-01T01:54:42.594Z,13.20
2022-08-01T01:57:09.864Z,10.70
2022-08-01T01:59:37.424Z,11.40
2022-08-01T02:02:06.662Z,11.75
2022-08-01T02:04:33.752Z,12.65
2022-08-01T02:06:58.930Z,10.55
2022-08-01T02:09:24.096Z,11.77
2022-08-01T02:12:07.585Z,11.30
2022-08-01T02:14:36.136Z,11.82
2022-08-01T02:17:04.797Z,12.35
2022-08-01T02:19:28.835Z,12.35
2022-08-01T02:21:58.584Z,11.85
2022-08-01T02:24:36.203Z,12.05
2022-08-01T02:27:04.559Z,12.63
2022-08-01T02:29:37.427Z,11.43
2022-08-01T02:32:04.667Z,11.65
2022-08-01T02:34:33.467Z,11.30
2022-08-01T02:37:00.085Z,14.57
2022-08-01T02:39:26.178Z,10.90
2022-08-01T02:41:52.627Z,10.80
2022-08-01T02:44:26.387Z,10.65
2022-08-01T02:46:54.659Z,14.82
2022-08-01T02:49:22.251Z,11.23
2022-08-01T02:51:49.034Z,13.02
2022-08-01T02:54:14.776Z,10.82
2022-08-01T02:56:39.380Z,8.73
2022-08-01T02:59:06.912Z,10.38
2022-08-01T03:01:31.918Z,11.30
2022-08-01T03:03:57.605Z,11.85
2022-08-01T03:06:22.239Z,13.93
2022-08-01T03:08:46.635Z,12.13
2022-08-01T03:11:13.394Z,10.68
2022-08-01T03:13:37.857Z,12.13
2022-08-01T03:16:04.011Z,11.15
2022-08-01T03:18:29.327Z,12.32
2022-08-01T03:20:54.901Z,12.27
2022-08-01T03:23:19.723Z,13.23
2022-08-01T03:25:47.845Z,13.63
2022-08-01T03:28:16.545Z,12.50
2022-08-01T03:30:42.024Z,14.77
2022-08-01T03:33:06.111Z,14.05
2022-08-01T03:35:36.617Z,11.52
2022-08-01T03:38:20.498Z,12.63
2022-08-01T03:40:51.022Z,12.05
2022-08-01T03:43:25.243Z,14.35
2022-08-01T03:45:53.358Z,11.98
2022-08-01T03:48:20.844Z,12.57
2022-08-01T03:50:54.014Z,13.50
2022-08-01T03:53:22.435Z,12.75
2022-08-01T03:55:46.923Z,12.60
2022-08-01T03:58:12.239Z,14.55
2022-08-01T04:00:40.364Z,13.13
2022-08-01T04:03:05.069Z,12.05
2022-08-01T04:05:28.875Z,12.32
2022-08-01T04:07:56.742Z,11.23
2022-08-01T04:10:20.480Z,13.00
2022-08-01T04:12:44.292Z,11.80
2022-08-01T04:15:09.853Z,11.80
2022-08-01T04:17:35.027Z,13.55
2022-08-01T04:19:58.760Z,11.65
2022-08-01T04:22:22.573Z,12.57
2022-08-01T04:24:56.502Z,16.63
2022-08-01T04:27:50.080Z,12.80
2022-08-01T04:30:12.041Z,13.50
2022-08-01T04:32:46.484Z,14.23
2022-08-01T04:35:23.564Z,11.95
2022-08-01T04:37:58.539Z,14.15
2022-08-01T04:40:23.983Z,15.20
2022-08-01T04:42:49.955Z,14.00
2022-08-01T04:45:13.726Z,15.73
2022-08-01T04:47:39.132Z,16.48
2022-08-01T04:50:09.203Z,16.00
2022-08-01T04:52:36.843Z,17.65
2022-08-01T04:55:00.582Z,17.75
2022-08-01T04:57:24.351Z,16.45
2022-08-01T04:59:48.076Z,15.68
2022-08-01T05:02:14.345Z,17.45
2022-08-01T05:04:38.939Z,21.92
2022-08-01T05:07:04.588Z,16.25
2022-08-01T05:09:31.165Z,21.00
2022-08-01T05:11:55.767Z,19.50
2022-08-01T05:14:19.508Z,18.92
2022-08-01T05:16:43.284Z,23.27
2022-08-01T05:19:09.224Z,17.98
2022-08-01T05:21:33.045Z,15.63
2022-08-01T05:23:59.088Z,17.35
2022-08-01T05:26:22.927Z,17.10
2022-08-01T05:28:46.981Z,17.70
2022-08-01T05:31:10.831Z,17.45
2022-08-01T05:33:34.556Z,16.98
2022-08-01T05:35:58.334Z,21.15
2022-08-01T05:38:22.075Z,18.38
2022-08-01T05:40:47.363Z,18.35
2022-08-01T05:43:11.129Z,15.52
2022-08-01T05:45:35.007Z,17.88
2022-08-01T05:47:58.777Z,16.30
2022-08-01T05:50:22.667Z,15.15
2022-08-01T05:52:46.420Z,17.65
2022-08-01T05:55:11.603Z,14.57
2022-08-01T05:57:36.702Z,15.27
2022-08-01T06:00:03.167Z,15.07
2022-08-01T06:02:35.506Z,16.17
2022-08-01T06:04:59.403Z,17.38
2022-08-01T06:07:23.084Z,15.00
2022-08-01T06:09:46.898Z,14.18
2022-08-01T06:12:10.997Z,13.07
2022-08-01T06:14:36.204Z,14.02
2022-08-01T06:16:59.933Z,14.68
2022-08-01T06:19:23.707Z,13.00
2022-08-01T06:21:47.383Z,12.30
2022-08-01T06:24:11.098Z,12.40
2022-08-01T06:26:34.791Z,11.57
2022-08-01T06:28:58.561Z,11.57
2022-08-01T06:31:23.742Z,10.90
2022-08-01T06:33:47.533Z,12.30
2022-08-01T06:36:11.411Z,11.32
2022-08-01T06:38:35.202Z,8.60
2022-08-01T06:40:58.952Z,8.57
2022-08-01T06:43:22.747Z,9.90
2022-08-01T06:45:46.528Z,10.20
2022-08-01T06:48:11.823Z,7.63
2022-08-01T06:50:37.538Z,8.40
2022-08-01T06:53:01.458Z,6.28
2022-08-01T06:55:25.332Z,6.93
2022-08-01T06:57:50.675Z,7.68
2022-08-01T07:00:17.189Z,6.88
2022-08-01T07:02:42.098Z,6.35
2022-08-01T07:05:08.107Z,6.80
2022-08-01T07:07:32.089Z,7.80
2022-08-01T07:09:55.800Z,6.28
2022-08-01T07:12:19.585Z,7.68
2022-08-01T07:14:43.276Z,5.18
2022-08-01T07:17:07.051Z,7.15
2022-08-01T07:19:30.772Z,5.60
2022-08-01T07:21:55.997Z,6.18
2022-08-01T07:24:21.972Z,5.93
2022-08-01T07:26:53.761Z,6.07
2022-08-01T07:29:18.357Z,6.10
2022-08-01T07:31:42.304Z,5.93
2022-08-01T07:34:06.295Z,5.60
2022-08-01T07:36:29.984Z,5.35
2022-08-01T07:38:55.236Z,5.10
2022-08-01T07:41:19.280Z,8.05
2022-08-01T07:43:53.116Z,6.28
2022-08-01T07:46:20.164Z,5.10
2022-08-01T07:48:44.072Z,5.57
2022-08-01T07:51:07.775Z,4.63
2022-08-01T07:53:31.513Z,5.25
2022-08-01T07:55:56.688Z,5.00
2022-08-01T07:58:20.754Z,7.55
2022-08-01T08:00:44.836Z,5.13
2022-08-01T08:03:08.568Z,6.18
2022-08-01T08:05:58.678Z,5.18
2022-08-01T08:08:19.200Z,5.85
2022-08-01T08:10:45.629Z,5.18
2022-08-01T08:13:10.973Z,5.35
2022-08-01T08:15:35.654Z,5.05
2022-08-01T08:17:59.440Z,4.47
2022-08-01T08:20:25.938Z,4.70
2022-08-01T08:22:49.701Z,4.70
2022-08-01T08:25:13.724Z,4.82
2022-08-01T08:27:38.139Z,3.53
2022-08-01T08:30:03.312Z,4.13
2022-08-01T08:32:27.501Z,4.57
2022-08-01T08:34:51.382Z,3.45
2022-08-01T08:37:15.179Z,5.72
2022-08-01T08:39:41.599Z,3.40
2022-08-01T08:42:09.880Z,3.20
2022-08-01T08:44:33.554Z,2.80
2022-08-01T08:47:06.225Z,3.28
2022-08-01T08:49:36.072Z,2.83
2022-08-01T08:52:02.580Z,2.78
2022-08-01T08:54:30.824Z,2.92
2022-08-01T08:56:56.716Z,2.60
2022-08-01T08:59:20.832Z,2.30
2022-08-01T09:01:45.456Z,2.85
2022-08-01T09:04:10.809Z,2.90
2022-08-01T09:06:34.936Z,2.70
2022-08-01T09:08:58.928Z,2.72
2022-08-01T09:11:23.316Z,3.33
2022-08-01T09:14:05.546Z,3.35
2022-08-01T09:16:29.288Z,3.70
2022-08-01T09:18:53.797Z,2.90
2022-08-01T09:21:22.209Z,2.83
2022-08-01T09:23:54.187Z,2.67
2022-08-01T09:26:21.212Z,2.75
2022-08-01T09:28:47.922Z,4.50
2022-08-01T09:31:13.591Z,3.13
2022-08-01T09:33:57.113Z,2.80
2022-08-01T09:36:26.820Z,2.67
2022-08-01T09:38:51.219Z,2.60
2022-08-01T09:41:15.060Z,3.33
2022-08-01T09:43:38.792Z,3.90
2022-08-01T09:46:07.465Z,3.05
2022-08-01T09:48:38.025Z,3.45
2022-08-01T09:51:07.200Z,3.92
2022-08-01T09:53:52.026Z,3.13
2022-08-01T09:56:17.199Z,4.03
2022-08-01T09:59:00.891Z,3.08
2022-08-01T10:01:26.853Z,3.55
2022-08-01T10:04:09.897Z,2.88
2022-08-01T10:06:34.584Z,3.30
2022-08-01T10:08:59.748Z,2.70
2022-08-01T10:11:23.734Z,2.95
2022-08-01T10:14:02.283Z,2.78
2022-08-01T10:16:27.409Z,2.70
2022-08-01T10:18:55.936Z,3.22
2022-08-01T10:21:57.019Z,3.58
2022-08-01T10:24:11.520Z,2.95
2022-08-01T10:26:36.860Z,2.70
2022-08-01T10:29:05.223Z,2.60
2022-08-01T10:31:50.487Z,3.05
2022-08-01T10:34:18.587Z,2.95
2022-08-01T10:36:48.598Z,2.15
2022-08-01T10:39:15.463Z,2.25
2022-08-01T10:41:44.072Z,2.45
2022-08-01T10:44:10.015Z,3.05
2022-08-01T10:46:34.165Z,1.98
2022-08-01T10:49:04.975Z,2.10
2022-08-01T10:51:52.624Z,4.85
2022-08-01T10:54:15.824Z,2.17
2022-08-01T10:56:45.824Z,3.90
2022-08-01T10:59:11.956Z,2.65
2022-08-01T11:01:37.614Z,3.33
2022-08-01T11:04:11.417Z,2.42
2022-08-01T11:07:07.231Z,1.80
2022-08-01T11:09:45.938Z,3.63
2022-08-01T11:12:23.104Z,2.33
2022-08-01T11:15:35.269Z,2.00
2022-08-01T11:18:02.945Z,2.80
2022-08-01T11:20:31.502Z,1.88
2022-08-01T11:23:36.364Z,3.28
2022-08-01T11:26:18.576Z,1.70
2022-08-01T11:29:22.030Z,3.00
2022-08-01T11:31:47.247Z,1.85
2022-08-01T11:34:12.220Z,1.92
2022-08-01T11:36:58.434Z,3.95
2022-08-01T11:39:20.964Z,1.40
2022-08-01T11:41:50.540Z,1.33
2022-08-01T11:44:24.939Z,1.50
2022-08-01T11:47:08.705Z,1.27
2022-08-01T11:49:51.769Z,3.05
2022-08-01T11:52:18.189Z,2.80
2022-08-01T11:54:45.716Z,1.33
2022-08-01T11:57:13.365Z,1.20
2022-08-01T11:59:59.880Z,2.53
2022-08-01T12:02:37.393Z,4.10
2022-08-01T12:05:02.862Z,1.60
2022-08-01T12:07:31.867Z,1.13
2022-08-01T12:10:04.827Z,1.40
2022-08-01T12:12:31.481Z,1.40
2022-08-01T12:14:57.096Z,2.67
2022-08-01T12:17:20.877Z,1.30
2022-08-01T12:19:44.561Z,2.17
2022-08-01T12:22:14.174Z,1.75
2022-08-01T12:24:38.437Z,1.60
2022-08-01T12:27:02.290Z,1.88
2022-08-01T12:29:40.336Z,1.70
2022-08-01T12:32:04.791Z,1.30
2022-08-01T12:34:30.018Z,1.73
2022-08-01T12:36:53.796Z,3.25
2022-08-01T12:39:17.532Z,1.42
2022-08-01T12:41:41.356Z,2.22
2022-08-01T12:44:05.128Z,3.13
2022-08-01T12:46:30.335Z,1.50
2022-08-01T12:48:54.112Z,2.72
2022-08-01T12:51:18.125Z,1.98
2022-08-01T12:53:41.909Z,1.98
2022-08-01T12:56:06.056Z,3.83
2022-08-01T12:58:35.264Z,1.77
2022-08-01T13:01:07.892Z,1.88
2022-08-01T13:03:33.245Z,2.95
2022-08-01T13:05:59.818Z,1.40
2022-08-01T13:08:26.027Z,1.40
2022-08-01T13:10:50.548Z,1.88
2022-08-01T13:13:28.368Z,1.30
2022-08-01T13:16:07.341Z,1.65
2022-08-01T13:18:35.920Z,1.77
2022-08-01T13:21:17.447Z,2.45
2022-08-01T13:24:01.502Z,2.08
2022-08-01T13:26:43.972Z,2.50
2022-08-01T13:29:08.848Z,4.22
2022-08-01T13:31:35.623Z,1.70
2022-08-01T13:34:00.891Z,1.77
2022-08-01T13:36:28.246Z,1.83
2022-08-01T13:39:09.364Z,2.22
2022-08-01T13:41:36.551Z,2.30
2022-08-01T13:44:00.257Z,1.80
2022-08-01T13:46:24.035Z,2.67
2022-08-01T13:48:48.764Z,4.05
2022-08-01T13:51:22.247Z,2.13
2022-08-01T13:53:46.840Z,2.78
2022-08-01T13:56:10.560Z,3.50
2022-08-01T13:58:34.292Z,3.50
2022-08-01T14:00:58.205Z,2.55
2022-08-01T14:03:22.151Z,2.38
2022-08-01T14:05:58.585Z,3.30
2022-08-01T14:08:25.341Z,1.90
2022-08-01T14:10:49.132Z,1.75
2022-08-01T14:13:12.835Z,1.90
2022-08-01T14:15:39.759Z,1.75
2022-08-01T14:18:03.706Z,2.03
2022-08-01T14:20:29.607Z,2.00
2022-08-01T14:22:53.411Z,1.77
2022-08-01T14:25:23.871Z,2.10
2022-08-01T14:28:02.991Z,2.78
2022-08-01T14:30:26.700Z,1.85
2022-08-01T14:32:50.448Z,2.55
2022-08-01T14:35:14.167Z,2.00
2022-08-01T14:37:38.887Z,1.70
2022-08-01T14:40:09.908Z,1.85
2022-08-01T14:42:35.127Z,2.10
2022-08-01T14:44:58.935Z,3.75
2022-08-01T14:47:22.749Z,1.40
2022-08-01T14:49:47.200Z,1.95
2022-08-01T14:52:11.148Z,6.53
2022-08-01T14:54:34.882Z,2.50
2022-08-01T14:56:58.676Z,2.80
2022-08-01T14:59:23.803Z,3.78
2022-08-01T15:01:47.624Z,2.67
2022-08-01T15:04:11.293Z,1.40
2022-08-01T15:06:35.060Z,1.25
2022-08-01T15:08:58.743Z,2.35
2022-08-01T15:11:22.491Z,1.70
2022-08-01T15:13:46.268Z,2.10
2022-08-01T15:16:11.995Z,1.73
2022-08-01T15:18:36.004Z,0.85
2022-08-01T15:20:59.793Z,2.55
2022-08-01T15:23:23.995Z,0.80
2022-08-01T15:25:47.740Z,1.92
2022-08-01T15:28:11.927Z,1.23
2022-08-01T15:30:35.875Z,2.63
2022-08-01T15:33:00.969Z,3.03
2022-08-01T15:35:24.752Z,0.77
2022-08-01T15:37:48.480Z,2.30
2022-08-01T15:40:13.494Z,1.65
2022-08-01T15:42:37.211Z,1.23
2022-08-01T15:45:00.951Z,1.73
2022-08-01T15:47:24.951Z,0.82
2022-08-01T15:49:52.339Z,1.58
2022-08-01T15:52:21.950Z,2.55
2022-08-01T15:54:46.548Z,0.85
2022-08-01T15:57:10.662Z,0.80
2022-08-01T15:59:36.200Z,2.33
2022-08-01T16:02:02.691Z,1.33
2022-08-01T16:04:27.039Z,1.48
2022-08-01T16:06:55.128Z,2.30
2022-08-01T16:09:19.424Z,1.08
2022-08-01T16:11:51.115Z,1.52
2022-08-01T16:14:15.086Z,4.93
2022-08-01T16:16:39.412Z,2.17
2022-08-01T16:19:05.064Z,4.32
2022-08-01T16:21:28.796Z,1.63
2022-08-01T16:23:53.944Z,2.25
2022-08-01T16:26:27.789Z,1.48
2022-08-01T16:28:52.896Z,1.20
2022-08-01T16:31:36.949Z,0.95
2022-08-01T16:34:05.190Z,1.65
2022-08-01T16:36:29.022Z,3.15
2022-08-01T16:38:54.371Z,1.13
2022-08-01T16:41:19.581Z,0.95
2022-08-01T16:43:46.001Z,1.55
2022-08-01T16:46:17.907Z,1.13
2022-08-01T16:48:41.704Z,1.05
2022-08-01T16:51:05.628Z,1.27
2022-08-01T16:53:29.288Z,1.13
2022-08-01T16:55:54.484Z,2.67
2022-08-01T16:58:27.133Z,2.05
2022-08-01T17:00:56.983Z,1.63
2022-08-01T17:03:46.758Z,3.25
2022-08-01T17:06:08.360Z,4.20
2022-08-01T17:08:32.018Z,1.08
2022-08-01T17:10:57.295Z,3.08
2022-08-01T17:13:23.490Z,1.58
2022-08-01T17:15:48.236Z,6.03
2022-08-01T17:18:11.987Z,3.50
2022-08-01T17:20:35.885Z,7.03
2022-08-01T17:22:59.620Z,3.92
2022-08-01T17:25:24.591Z,2.28
2022-08-01T17:27:53.743Z,3.20
2022-08-01T17:30:17.456Z,4.97
2022-08-01T17:32:42.192Z,1.30
2022-08-01T17:35:06.847Z,2.80
2022-08-01T17:37:30.600Z,3.35
2022-08-01T17:39:54.348Z,4.57
2022-08-01T17:42:18.124Z,3.67
2022-08-01T17:44:48.818Z,2.78
2022-08-01T17:47:24.225Z,2.17
2022-08-01T17:49:57.039Z,1.33
2022-08-01T17:52:21.754Z,1.52
2022-08-01T17:54:45.704Z,2.92
2022-08-01T17:57:10.467Z,1.92
2022-08-01T17:59:34.299Z,1.63
2022-08-01T18:01:59.479Z,1.92
2022-08-01T18:04:24.879Z,2.90
2022-08-01T18:06:58.239Z,1.40
2022-08-01T18:09:22.761Z,1.58
2022-08-01T18:11:46.468Z,1.30
2022-08-01T18:14:10.336Z,1.58
2022-08-01T18:16:35.341Z,2.15
2022-08-01T18:19:00.527Z,1.35
2022-08-01T18:21:24.227Z,2.85
2022-08-01T18:23:51.866Z,2.03
2022-08-01T18:26:16.039Z,3.13
2022-08-01T18:28:46.345Z,1.83
2022-08-01T18:31:13.103Z,5.72
2022-08-01T18:33:37.736Z,3.05
2022-08-01T18:36:04.452Z,1.70
2022-08-01T18:38:29.260Z,1.23
2022-08-01T18:40:53.177Z,2.83
2022-08-01T18:43:16.969Z,3.78
2022-08-01T18:45:42.892Z,6.10
2022-08-01T18:48:07.891Z,3.35
2022-08-01T18:50:31.652Z,4.97
2022-08-01T18:52:56.775Z,2.95
2022-08-01T18:55:21.015Z,2.83
2022-08-01T18:57:44.754Z,2.35
2022-08-01T19:00:10.540Z,3.30
2022-08-01T19:02:34.239Z,2.92
2022-08-01T19:04:58.045Z,1.58
2022-08-01T19:07:39.421Z,2.05
2022-08-01T19:10:08.186Z,2.75
2022-08-01T19:12:31.955Z,4.20
2022-08-01T19:14:55.688Z,2.45
2022-08-01T19:17:19.995Z,1.27
2022-08-01T19:19:46.073Z,2.70
2022-08-01T19:22:09.856Z,1.83
2022-08-01T19:24:33.826Z,2.90
2022-08-01T19:27:05.412Z,2.25
2022-08-01T19:29:36.459Z,3.22
2022-08-01T19:32:01.440Z,1.75
2022-08-01T19:34:27.528Z,2.15
2022-08-01T19:36:56.411Z,1.77
2022-08-01T19:39:26.064Z,2.65
2022-08-01T19:41:51.330Z,2.75
2022-08-01T19:44:20.108Z,3.72
2022-08-01T19:46:45.023Z,1.63
2022-08-01T19:49:08.925Z,2.33
2022-08-01T19:51:38.300Z,3.67
2022-08-01T19:54:07.031Z,2.72
2022-08-01T19:56:33.579Z,2.50
2022-08-01T19:59:00.039Z,2.03
2022-08-01T20:01:25.704Z,2.60
2022-08-01T20:03:51.618Z,2.30
2022-08-01T20:06:20.234Z,2.67
2022-08-01T20:08:49.006Z,1.90
2022-08-01T20:11:14.613Z,3.90
2022-08-01T20:13:40.683Z,3.88
2022-08-01T20:16:06.827Z,2.38
2022-08-01T20:18:32.452Z,3.58
2022-08-01T20:20:57.044Z,3.65
2022-08-01T20:23:23.616Z,3.42
2022-08-01T20:25:50.571Z,4.07
2022-08-01T20:28:15.560Z,2.50
2022-08-01T20:30:39.783Z,2.90
2022-08-01T20:33:03.556Z,7.95
2022-08-01T20:35:53.220Z,3.33
2022-08-01T20:38:15.800Z,3.28
2022-08-01T20:40:44.020Z,4.78
2022-08-01T20:43:11.787Z,2.50
2022-08-01T20:45:35.909Z,3.70
2022-08-01T20:47:59.960Z,1.88
2022-08-01T20:50:53.703Z,3.17
2022-08-01T20:53:19.815Z,4.38
2022-08-01T20:55:53.725Z,2.38
2022-08-01T20:58:28.841Z,2.45
2022-08-01T21:00:56.222Z,1.88
2022-08-01T21:03:26.011Z,1.80
2022-08-01T21:05:59.284Z,3.70
2022-08-01T21:08:29.071Z,4.13
2022-08-01T21:10:57.805Z,1.65
2022-08-01T21:13:27.472Z,2.72
2022-08-01T21:16:24.166Z,2.28
2022-08-01T21:19:19.015Z,3.03
2022-08-01T21:21:46.020Z,2.47
2022-08-01T21:24:17.687Z,6.07
2022-08-01T21:26:42.329Z,2.33
2022-08-01T21:29:08.545Z,2.00
2022-08-01T21:31:40.881Z,2.65
2022-08-01T21:34:07.767Z,4.70
2022-08-01T21:36:32.348Z,4.03
2022-08-01T21:38:59.109Z,4.70
2022-08-01T21:41:56.098Z,4.28
2022-08-01T21:44:15.232Z,4.50
2022-08-01T21:46:39.101Z,4.10
2022-08-01T21:49:03.847Z,2.72
2022-08-01T21:51:41.207Z,2.83
2022-08-01T21:54:20.867Z,3.42
2022-08-01T21:57:01.219Z,7.32
2022-08-01T21:59:32.882Z,3.97
2022-08-01T22:02:04.242Z,5.00
2022-08-01T22:04:40.150Z,4.00
2022-08-01T22:07:05.385Z,6.72
2022-08-01T22:09:31.213Z,3.55
2022-08-01T22:12:00.992Z,5.05
2022-08-01T22:14:35.359Z,4.05
2022-08-01T22:17:00.268Z,2.85
2022-08-01T22:19:29.580Z,4.72
2022-08-01T22:22:34.233Z,4.07
2022-08-01T22:24:53.512Z,4.55
2022-08-01T22:28:08.982Z,4.55
2022-08-01T22:30:14.900Z,5.82
2022-08-01T22:32:42.262Z,7.38
2022-08-01T22:35:08.700Z,5.88
2022-08-01T22:37:56.345Z,4.75
2022-08-01T22:40:17.440Z,5.65
2022-08-01T22:42:47.654Z,5.65
2022-08-01T22:45:16.388Z,4.38
2022-08-01T22:48:01.147Z,3.90
2022-08-01T22:50:34.320Z,5.75
2022-08-01T22:53:13.316Z,4.85
2022-08-01T22:55:59.505Z,4.97
2022-08-01T22:58:26.677Z,3.95
2022-08-01T23:00:56.277Z,5.00
2022-08-01T23:03:25.208Z,6.07
2022-08-01T23:06:04.061Z,5.32
2022-08-01T23:08:29.091Z,5.40
2022-08-01T23:10:53.949Z,7.45
2022-08-01T23:13:19.689Z,7.10
2022-08-01T23:15:52.281Z,8.35
2022-08-01T23:18:18.030Z,5.63
2022-08-01T23:20:42.615Z,7.03
2022-08-01T23:23:07.520Z,6.75
2022-08-01T23:25:34.402Z,5.32
2022-08-01T23:28:05.314Z,7.10
2022-08-01T23:30:32.060Z,7.35
2022-08-01T23:32:57.348Z,5.25
2022-08-01T23:35:21.679Z,6.47
2022-08-01T23:37:45.373Z,6.05
2022-08-01T23:40:11.219Z,5.25
2022-08-01T23:42:34.969Z,6.55
2022-08-01T23:44:58.708Z,5.88
2022-08-01T23:47:22.367Z,8.25
2022-08-01T23:49:53.192Z,7.20
2022-08-01T23:52:20.530Z,5.80
2022-08-01T23:54:45.304Z,5.97
2022-08-01T23:57:09.080Z,5.50
2022-08-01T23:59:52.444Z,6.43
